Terminal Aerodrome Forecast
Issued by NWS

Home | Current Version | Previous Version | Text Only | Print | Product List | Glossary On
Versions: 1 2 3 4 5 6 7 8 9 10 11 12 13 14 15 16 17 18 19
831
FTUS42 KMHX 010536
TAFOAJ
TAF
KOAJ 010536Z 0106/0206 00000KT 3SM BR BKN250
     FM010900 00000KT 3SM BR BKN003
     FM011200 VRB03KT 3SM BR BKN110
     FM011300 VRB03KT P6SM BKN110
     FM011400 VRB04KT P6SM SCT040 BKN120
     FM012100 21005KT P6SM -SHRA VCTS BKN040CB
      AMD LTD TO CLD VIS AND WIND=

USA.gov is the U.S. government's official web portal to all federal, state and local government web resources and services.